Time;durP1;ratioP1;P1;durP2;ratioP2;P2;SDS_P1;SDS_P2;PMS_P1;PMS_P2;Temp;Humidity;BMP_temperature;BMP_pressure;BME280_temperature;BME280_humidity;BME280_pressure;Samples;Min_cycle;Max_cycle;Signal;HPM_P1;HPM_P2
2023/09/23 00:00:29;;;;;;;47.13;43.77;;;;;;;;;;5010726;28;20026;-61
2023/09/23 00:02:57;;;;;;;30.35;28.35;;;;;;;;;;5004202;28;20452;-61
2023/09/23 00:05:22;;;;;;;63.83;59.50;;;;;;;;;;5006140;28;20073;-61
2023/09/23 00:07:49;;;;;;;29.15;27.33;;;;;;;;;;5009097;28;20017;-61
2023/09/23 00:10:14;;;;;;;44.47;41.72;;;;;;;;;;5005346;28;20053;-62
2023/09/23 00:12:43;;;;;;;36.50;34.37;;;;;;;;;;5010925;28;20069;-62
2023/09/23 00:15:10;;;;;;;51.40;48.13;;;;;;;;;;5008969;28;20470;-62
2023/09/23 00:17:37;;;;;;;35.25;33.03;;;;;;;;;;5011450;28;20042;-61
2023/09/23 00:20:14;;;;;;;93.00;87.35;;;;;;;;;;5008570;28;20025;-61
2023/09/23 00:22:40;;;;;;;45.72;42.75;;;;;;;;;;5010045;28;20013;-60
2023/09/23 00:25:13;;;;;;;23.00;21.38;;;;;;;;;;5005373;28;20101;-62
2023/09/23 00:27:39;;;;;;;49.97;46.88;;;;;;;;;;5008915;28;20029;-62
2023/09/23 00:30:05;;;;;;;24.67;23.00;;;;;;;;;;5006236;28;20449;-61
2023/09/23 00:32:34;;;;;;;39.40;36.90;;;;;;;;;;5004715;28;20029;-61
2023/09/23 00:34:59;;;;;;;76.00;71.13;;;;;;;;;;5008143;28;20429;-60
2023/09/23 00:37:24;;;;;;;89.10;83.23;;;;;;;;;;5009609;28;20100;-61
2023/09/23 00:39:50;;;;;;;66.55;62.28;;;;;;;;;;5008018;28;20030;-60
2023/09/23 00:42:22;;;;;;;35.33;32.80;;;;;;;;;;5010432;28;20069;-62
2023/09/23 00:44:47;;;;;;;35.33;33.00;;;;;;;;;;5003097;28;20464;-60
2023/09/23 00:47:15;;;;;;;47.50;44.47;;;;;;;;;;5011261;28;20474;-61
2023/09/23 00:49:44;;;;;;;35.20;32.83;;;;;;;;;;5003530;28;20072;-61
2023/09/23 00:52:13;;;;;;;48.88;45.67;;;;;;;;;;5010929;28;20021;-60
2023/09/23 00:54:40;;;;;;;25.40;23.52;;;;;;;;;;5001944;28;20057;-61
2023/09/23 00:57:06;;;;;;;48.63;45.63;;;;;;;;;;5010725;28;20025;-59
2023/09/23 00:59:35;;;;;;;33.00;30.75;;;;;;;;;;5007966;28;20029;-60
2023/09/23 01:02:01;;;;;;;28.40;26.50;;;;;;;;;;5008305;28;20552;-60
2023/09/23 01:04:26;;;;;;;28.80;26.85;;;;;;;;;;5009638;28;20021;-60
2023/09/23 01:06:51;;;;;;;61.67;57.88;;;;;;;;;;5010440;28;20113;-59
2023/09/23 01:09:20;;;;;;;57.03;53.60;;;;;;;;;;5020981;28;20500;-60
2023/09/23 01:11:45;;;;;;;19.85;18.45;;;;;;;;;;5015056;28;20068;-60
2023/09/23 01:14:11;;;;;;;102.28;95.90;;;;;;;;;;5011803;28;20065;-60
2023/09/23 01:16:37;;;;;;;23.10;21.47;;;;;;;;;;5010161;28;20494;-60
2023/09/23 01:19:02;;;;;;;30.05;27.90;;;;;;;;;;5009351;28;20393;-60
2023/09/23 01:21:27;;;;;;;22.10;20.57;;;;;;;;;;5010616;28;20026;-60
2023/09/23 01:23:53;;;;;;;43.13;40.20;;;;;;;;;;5010812;28;20080;-61
2023/09/23 01:26:18;;;;;;;93.60;88.00;;;;;;;;;;5010281;28;20032;-59
2023/09/23 01:28:45;;;;;;;72.70;68.15;;;;;;;;;;5010567;28;20072;-60
2023/09/23 01:31:10;;;;;;;;;;;;;;;;;;5009536;28;20547;-61
2023/09/23 01:33:35;;;;;;;25.73;23.92;;;;;;;;;;5010394;28;20377;-59
2023/09/23 01:36:03;;;;;;;36.58;34.00;;;;;;;;;;5001785;28;20014;-60
2023/09/23 01:38:31;;;;;;;34.28;31.60;;;;;;;;;;5009907;28;20018;-60
2023/09/23 01:40:57;;;;;;;19.23;17.52;;;;;;;;;;5007345;28;20099;-59
2023/09/23 01:43:22;;;;;;;48.50;45.30;;;;;;;;;;5007462;28;20100;-60
2023/09/23 01:45:47;;;;;;;18.85;17.35;;;;;;;;;;5006890;28;20030;-61
2023/09/23 01:48:13;;;;;;;69.32;64.80;;;;;;;;;;5008143;28;20037;-61
2023/09/23 01:50:38;;;;;;;21.67;19.97;;;;;;;;;;5009685;28;20024;-60
2023/09/23 01:53:04;;;;;;;24.47;22.80;;;;;;;;;;5010660;28;20018;-60
2023/09/23 01:55:29;;;;;;;44.40;41.42;;;;;;;;;;5009907;28;20128;-59
2023/09/23 01:57:54;;;;;;;33.92;31.58;;;;;;;;;;5010180;28;20396;-60
2023/09/23 02:00:26;;;;;;;124.30;116.18;;;;;;;;;;5008288;28;20030;-60
2023/09/23 02:02:53;;;;;;;56.97;53.38;;;;;;;;;;5007954;28;20018;-61
2023/09/23 02:05:19;;;;;;;34.88;32.47;;;;;;;;;;5006946;28;20129;-60
2023/09/23 02:07:46;;;;;;;20.70;19.15;;;;;;;;;;5010327;28;20097;-60
2023/09/23 02:10:14;;;;;;;21.13;19.38;;;;;;;;;;5005740;28;20108;-59
2023/09/23 02:12:39;;;;;;;28.27;26.20;;;;;;;;;;5007636;28;20017;-61
2023/09/23 02:15:06;;;;;;;17.47;16.13;;;;;;;;;;5011426;28;20057;-59
2023/09/23 02:17:31;;;;;;;;;;;;;;;;;;5013159;28;20033;-60
2023/09/23 02:19:58;;;;;;;28.55;26.50;;;;;;;;;;5013061;28;19989;-60
2023/09/23 02:22:23;;;;;;;21.85;20.15;;;;;;;;;;5011315;28;20014;-61
2023/09/23 02:24:49;;;;;;;24.10;22.37;;;;;;;;;;5012453;28;20033;-61
2023/09/23 02:27:14;;;;;;;18.08;16.60;;;;;;;;;;5013428;28;20030;-61
2023/09/23 02:29:41;;;;;;;27.00;25.13;;;;;;;;;;5008920;28;20513;-60
2023/09/23 02:32:07;;;;;;;21.55;19.92;;;;;;;;;;5011557;28;20367;-60
2023/09/23 02:34:32;;;;;;;36.55;33.97;;;;;;;;;;5013514;28;20052;-60
2023/09/23 02:36:57;;;;;;;17.97;16.43;;;;;;;;;;5013045;28;20018;-61
2023/09/23 02:39:22;;;;;;;22.05;20.45;;;;;;;;;;5012816;28;20442;-59
2023/09/23 02:41:48;;;;;;;19.53;18.07;;;;;;;;;;5012920;28;20022;-60
2023/09/23 02:44:18;;;;;;;62.15;58.22;;;;;;;;;;5012317;28;20386;-62
2023/09/23 02:46:44;;;;;;;18.13;16.55;;;;;;;;;;5013348;28;20080;-60
2023/09/23 02:49:09;;;;;;;29.77;27.77;;;;;;;;;;5012557;28;20053;-59
2023/09/23 02:51:35;;;;;;;67.35;63.10;;;;;;;;;;5011554;28;20036;-60
2023/09/23 02:54:00;;;;;;;21.52;19.77;;;;;;;;;;5012755;28;20418;-59
2023/09/23 02:56:27;;;;;;;22.10;20.40;;;;;;;;;;5011519;28;20014;-62
2023/09/23 02:58:52;;;;;;;56.75;53.00;;;;;;;;;;5011294;28;20022;-60
2023/09/23 03:01:18;;;;;;;29.00;26.92;;;;;;;;;;5013085;28;20022;-60
2023/09/23 03:03:46;;;;;;;41.58;38.90;;;;;;;;;;5011560;28;20065;-59
2023/09/23 03:06:14;;;;;;;28.30;26.40;;;;;;;;;;5012995;28;20025;-60
2023/09/23 03:08:39;;;;;;;21.33;19.73;;;;;;;;;;5012278;28;20026;-61
2023/09/23 03:11:09;;;;;;;47.35;44.22;;;;;;;;;;5011421;28;20061;-59
2023/09/23 03:13:36;;;;;;;25.00;23.25;;;;;;;;;;5011527;28;20429;-59
2023/09/23 03:16:08;;;;;;;35.80;32.95;;;;;;;;;;5007871;28;20413;-60
2023/09/23 03:18:41;;;;;;;30.65;28.50;;;;;;;;;;5011787;28;20433;-59
2023/09/23 03:21:07;;;;;;;69.32;64.97;;;;;;;;;;5011595;28;20551;-60
2023/09/23 03:23:35;;;;;;;17.98;16.67;;;;;;;;;;5011163;28;20018;-59
2023/09/23 03:26:00;;;;;;;22.30;20.50;;;;;;;;;;5012598;28;20025;-59
2023/09/23 03:28:25;;;;;;;27.23;25.33;;;;;;;;;;5010302;28;20030;-59
2023/09/23 03:30:57;;;;;;;21.85;20.30;;;;;;;;;;5009190;28;20025;-59
2023/09/23 03:33:23;;;;;;;;;;;;;;;;;;5016929;28;20033;-62
2023/09/23 03:35:49;;;;;;;25.23;23.50;;;;;;;;;;5016676;28;19910;-60
2023/09/23 03:38:16;;;;;;;35.38;33.03;;;;;;;;;;5014986;28;20084;-59
2023/09/23 03:40:48;;;;;;;60.42;56.72;;;;;;;;;;5013555;28;20041;-59
2023/09/23 03:43:13;;;;;;;30.80;28.83;;;;;;;;;;5010295;28;20038;-60
2023/09/23 03:45:38;;;;;;;23.60;21.97;;;;;;;;;;5009413;28;20025;-61
2023/09/23 03:48:04;;;;;;;41.10;38.47;;;;;;;;;;5011920;28;20029;-60
2023/09/23 03:50:30;;;;;;;30.65;28.73;;;;;;;;;;5011543;28;20022;-61
2023/09/23 03:52:55;;;;;;;28.80;26.70;;;;;;;;;;5012124;28;20499;-60
2023/09/23 03:55:20;;;;;;;27.75;26.02;;;;;;;;;;5012161;28;20068;-60
2023/09/23 03:57:46;;;;;;;39.03;36.63;;;;;;;;;;5009081;28;20101;-60
2023/09/23 04:00:16;;;;;;;30.42;28.38;;;;;;;;;;5010048;28;20038;-59
2023/09/23 04:02:41;;;;;;;43.15;40.45;;;;;;;;;;5010631;28;20374;-61
2023/09/23 04:05:06;;;;;;;22.65;21.13;;;;;;;;;;5011074;28;20018;-60
2023/09/23 04:07:32;;;;;;;18.17;16.70;;;;;;;;;;5009466;28;20037;-61
2023/09/23 04:09:57;;;;;;;41.65;38.95;;;;;;;;;;5010182;28;20018;-61
2023/09/23 04:12:23;;;;;;;16.00;14.77;;;;;;;;;;5011435;28;20028;-62
2023/09/23 04:14:49;;;;;;;29.58;27.55;;;;;;;;;;5007925;28;20025;-60
2023/09/23 04:17:14;;;;;;;20.33;18.92;;;;;;;;;;5011347;28;20954;-58
2023/09/23 04:19:40;;;;;;;23.02;21.45;;;;;;;;;;5010867;28;20030;-60
2023/09/23 04:22:05;;;;;;;18.23;16.93;;;;;;;;;;5011268;28;20068;-62
2023/09/23 04:24:31;;;;;;;73.43;68.77;;;;;;;;;;5010808;28;20517;-61
2023/09/23 04:26:56;;;;;;;37.85;35.47;;;;;;;;;;5011246;28;20021;-61
2023/09/23 04:29:21;;;;;;;38.50;35.20;;;;;;;;;;5011007;28;20018;-59
2023/09/23 04:31:46;;;;;;;53.10;49.90;;;;;;;;;;5006067;28;20104;-60
2023/09/23 04:34:13;;;;;;;26.30;24.63;;;;;;;;;;5009223;28;20026;-60
2023/09/23 04:36:38;;;;;;;17.77;16.58;;;;;;;;;;5011670;28;20519;-61
2023/09/23 04:39:06;;;;;;;23.67;22.20;;;;;;;;;;5010057;28;20090;-59
2023/09/23 04:41:31;;;;;;;15.98;14.95;;;;;;;;;;5007205;28;20026;-60
2023/09/23 04:43:57;;;;;;;24.63;23.00;;;;;;;;;;5011009;28;20390;-61
2023/09/23 04:46:23;;;;;;;39.70;37.35;;;;;;;;;;5009232;28;20425;-61
2023/09/23 04:48:48;;;;;;;19.30;18.00;;;;;;;;;;5010989;28;20397;-60
2023/09/23 04:51:13;;;;;;;40.87;38.47;;;;;;;;;;5009037;28;20021;-60
2023/09/23 04:53:39;;;;;;;42.80;40.23;;;;;;;;;;5009836;28;20026;-59
2023/09/23 04:56:10;;;;;;;33.53;31.43;;;;;;;;;;5011108;28;20021;-61
2023/09/23 04:58:36;;;;;;;47.05;44.20;;;;;;;;;;5006664;28;20029;-60
2023/09/23 05:01:01;;;;;;;31.42;29.52;;;;;;;;;;5004308;28;20029;-60
2023/09/23 05:03:26;;;;;;;20.40;19.10;;;;;;;;;;5011004;28;20025;-59
2023/09/23 05:05:51;;;;;;;23.70;22.07;;;;;;;;;;5007268;28;20033;-59
2023/09/23 05:08:16;;;;;;;30.53;28.70;;;;;;;;;;5006885;28;20072;-61
2023/09/23 05:10:41;;;;;;;24.63;23.10;;;;;;;;;;5007311;28;20038;-61
2023/09/23 05:13:10;;;;;;;15.40;14.40;;;;;;;;;;5008615;28;20036;-60
2023/09/23 05:15:35;;;;;;;12.60;11.77;;;;;;;;;;5009153;28;20038;-61
2023/09/23 05:18:00;;;;;;;23.93;22.53;;;;;;;;;;5009628;28;20018;-61
2023/09/23 05:20:25;;;;;;;29.80;27.97;;;;;;;;;;5009049;28;20033;-61
2023/09/23 05:22:54;;;;;;;17.77;16.63;;;;;;;;;;5010807;28;20022;-61
2023/09/23 05:25:24;;;;;;;57.20;53.65;;;;;;;;;;5011068;28;20088;-59
2023/09/23 05:27:49;;;;;;;20.88;19.48;;;;;;;;;;5009644;28;20026;-61
2023/09/23 05:30:14;;;;;;;64.20;60.38;;;;;;;;;;5005034;28;20101;-61
2023/09/23 05:32:39;;;;;;;27.35;25.73;;;;;;;;;;5001017;28;20031;-61
2023/09/23 05:35:11;;;;;;;50.63;47.43;;;;;;;;;;5001494;28;20038;-60
2023/09/23 05:37:37;;;;;;;40.15;37.85;;;;;;;;;;5001443;28;20018;-60
2023/09/23 05:40:23;;;;;;;131.65;123.68;;;;;;;;;;5010127;28;20029;-59
2023/09/23 05:42:47;;;;;;;39.05;36.75;;;;;;;;;;5010377;28;20021;-61
2023/09/23 05:45:13;;;;;;;51.38;48.33;;;;;;;;;;5008980;28;20060;-61
2023/09/23 05:47:40;;;;;;;22.35;20.95;;;;;;;;;;5012421;28;20041;-61
2023/09/23 05:50:06;;;;;;;36.85;34.25;;;;;;;;;;5011726;28;20497;-59
2023/09/23 05:52:31;;;;;;;19.23;18.00;;;;;;;;;;5013250;28;20029;-61
2023/09/23 05:54:57;;;;;;;38.47;36.03;;;;;;;;;;5010302;28;20040;-59
2023/09/23 05:57:23;;;;;;;17.30;16.17;;;;;;;;;;5012959;28;20161;-60
2023/09/23 05:59:48;;;;;;;23.23;21.73;;;;;;;;;;5010391;28;20437;-60
2023/09/23 06:02:13;;;;;;;18.33;17.23;;;;;;;;;;5013444;28;20036;-61
2023/09/23 06:04:38;;;;;;;16.67;15.55;;;;;;;;;;5011080;28;20063;-60
2023/09/23 06:07:04;;;;;;;16.40;15.37;;;;;;;;;;5009673;28;20022;-60
2023/09/23 06:09:29;;;;;;;22.95;21.50;;;;;;;;;;5015250;28;20449;-61
2023/09/23 06:11:55;;;;;;;25.03;23.43;;;;;;;;;;5021908;28;20482;-61
2023/09/23 06:14:20;;;;;;;17.90;16.75;;;;;;;;;;5027039;28;20106;-59
2023/09/23 06:16:47;;;;;;;125.80;117.00;;;;;;;;;;5015398;28;20482;-60
2023/09/23 06:19:12;;;;;;;23.63;22.05;;;;;;;;;;5012215;28;20831;-59
2023/09/23 06:21:37;;;;;;;23.33;21.88;;;;;;;;;;5013667;28;20071;-60
2023/09/23 06:24:03;;;;;;;22.77;21.33;;;;;;;;;;5014146;28;20025;-59
2023/09/23 06:26:28;;;;;;;107.93;100.93;;;;;;;;;;5010178;28;20041;-60
2023/09/23 06:28:53;;;;;;;26.92;25.25;;;;;;;;;;5013232;28;20032;-59
2023/09/23 06:31:18;;;;;;;95.63;89.63;;;;;;;;;;5012022;28;20105;-62
2023/09/23 06:33:43;;;;;;;35.83;33.85;;;;;;;;;;5008551;28;20058;-61
2023/09/23 06:36:08;;;;;;;71.97;67.80;;;;;;;;;;5008006;28;20628;-61
2023/09/23 06:38:34;;;;;;;56.27;52.97;;;;;;;;;;5005288;28;20033;-61
2023/09/23 06:40:59;;;;;;;56.38;53.20;;;;;;;;;;5005080;28;20029;-60
2023/09/23 06:43:24;;;;;;;32.37;30.47;;;;;;;;;;5000492;28;20097;-60
2023/09/23 06:45:53;;;;;;;108.03;98.53;;;;;;;;;;5013355;28;20033;-61
2023/09/23 06:48:18;;;;;;;78.43;73.93;;;;;;;;;;5006521;28;20041;-61
2023/09/23 06:50:44;;;;;;;103.90;97.53;;;;;;;;;;5005112;28;20018;-59
2023/09/23 06:53:09;;;;;;;129.97;122.00;;;;;;;;;;5003777;28;20377;-60
2023/09/23 06:55:34;;;;;;;119.03;111.40;;;;;;;;;;5010249;28;20025;-60
2023/09/23 06:57:59;;;;;;;113.90;107.07;;;;;;;;;;5010600;28;20487;-60
2023/09/23 07:00:24;;;;;;;61.87;57.80;;;;;;;;;;4998170;28;20096;-60
2023/09/23 07:02:49;;;;;;;63.10;59.33;;;;;;;;;;5010541;28;21026;-58
2023/09/23 07:05:15;;;;;;;77.07;72.63;;;;;;;;;;5012605;28;20032;-61
2023/09/23 07:07:40;;;;;;;108.55;102.35;;;;;;;;;;5003735;28;20501;-61
2023/09/23 07:10:06;;;;;;;57.38;53.97;;;;;;;;;;5007975;28;20025;-60
2023/09/23 07:12:31;;;;;;;113.07;105.65;;;;;;;;;;5009377;28;20029;-60
2023/09/23 07:14:57;;;;;;;89.13;83.40;;;;;;;;;;5010636;28;20097;-60
2023/09/23 07:17:22;;;;;;;64.68;60.67;;;;;;;;;;5011601;28;20010;-62
2023/09/23 07:19:47;;;;;;;48.87;46.13;;;;;;;;;;5011861;28;20056;-61
2023/09/23 07:22:12;;;;;;;124.70;116.20;;;;;;;;;;5007102;28;20022;-59
2023/09/23 07:24:38;;;;;;;103.30;96.43;;;;;;;;;;5005476;28;20022;-61
2023/09/23 07:27:03;;;;;;;43.20;40.63;;;;;;;;;;5001959;28;22075;-60
2023/09/23 07:29:31;;;;;;;42.97;40.37;;;;;;;;;;5006688;28;20030;-58
2023/09/23 07:31:56;;;;;;;176.73;164.40;;;;;;;;;;5010299;28;20038;-58
2023/09/23 07:34:22;;;;;;;34.60;32.57;;;;;;;;;;5010032;28;20096;-58
2023/09/23 07:36:47;;;;;;;38.38;36.08;;;;;;;;;;5003365;28;20014;-57
2023/09/23 07:39:15;;;;;;;208.60;194.50;;;;;;;;;;5005460;28;20030;-58
2023/09/23 07:41:40;;;;;;;51.90;48.90;;;;;;;;;;5011625;28;20033;-57
2023/09/23 07:44:06;;;;;;;65.30;61.43;;;;;;;;;;5008045;28;20032;-58
2023/09/23 07:46:31;;;;;;;118.87;111.47;;;;;;;;;;5010979;28;20483;-59
2023/09/23 07:48:57;;;;;;;85.90;81.07;;;;;;;;;;5007072;28;20018;-57
2023/09/23 07:51:22;;;;;;;94.47;88.70;;;;;;;;;;5010840;28;20485;-59
2023/09/23 07:53:47;;;;;;;162.60;151.85;;;;;;;;;;5005775;28;20022;-59
2023/09/23 07:56:13;;;;;;;95.97;90.03;;;;;;;;;;5011913;28;20026;-58
2023/09/23 07:58:38;;;;;;;105.20;97.90;;;;;;;;;;5004707;28;20022;-58
2023/09/23 08:01:03;;;;;;;148.50;139.23;;;;;;;;;;5009213;28;20398;-59
2023/09/23 08:03:29;;;;;;;162.40;151.45;;;;;;;;;;5010147;28;20389;-57
2023/09/23 08:05:54;;;;;;;180.30;167.30;;;;;;;;;;5004356;28;20025;-59
2023/09/23 08:08:19;;;;;;;94.67;89.40;;;;;;;;;;5004952;28;20021;-58
2023/09/23 08:10:45;;;;;;;107.33;100.50;;;;;;;;;;5007272;28;20034;-58
2023/09/23 08:13:10;;;;;;;84.10;79.30;;;;;;;;;;5007308;28;20018;-58
2023/09/23 08:15:35;;;;;;;187.18;173.90;;;;;;;;;;5010703;28;20497;-59
2023/09/23 08:18:00;;;;;;;133.70;125.00;;;;;;;;;;5011015;28;20022;-58
2023/09/23 08:20:26;;;;;;;232.18;216.05;;;;;;;;;;5001807;28;20025;-59
2023/09/23 08:22:51;;;;;;;181.67;167.27;;;;;;;;;;5010099;28;20025;-57
2023/09/23 08:25:17;;;;;;;206.10;191.45;;;;;;;;;;5010420;28;20425;-59
2023/09/23 08:27:43;;;;;;;243.57;226.05;;;;;;;;;;5005556;28;20509;-58
2023/09/23 08:30:10;;;;;;;225.50;209.43;;;;;;;;;;5006533;28;20026;-57
2023/09/23 08:32:35;;;;;;;210.15;194.45;;;;;;;;;;5011767;28;20361;-58
2023/09/23 08:35:00;;;;;;;176.48;163.65;;;;;;;;;;5009093;28;20424;-58
2023/09/23 08:37:25;;;;;;;198.00;184.13;;;;;;;;;;5007495;28;20096;-57
2023/09/23 08:39:51;;;;;;;149.10;138.80;;;;;;;;;;5010208;28;20034;-58
2023/09/23 08:42:17;;;;;;;175.00;160.83;;;;;;;;;;5021666;28;20490;-59
2023/09/23 08:44:42;;;;;;;;;;;;;;;;;;5015201;28;20568;-59
2023/09/23 08:47:08;;;;;;;206.32;191.88;;;;;;;;;;5010692;28;19916;-58
2023/09/23 08:49:33;;;;;;;316.08;223.73;;;;;;;;;;5010795;28;20470;-59
2023/09/23 08:51:59;;;;;;;245.27;223.98;;;;;;;;;;5010637;28;20022;-60
2023/09/23 08:54:28;;;;;;;261.80;242.93;;;;;;;;;;5008150;28;20022;-60
2023/09/23 08:56:54;;;;;;;165.95;154.65;;;;;;;;;;5014553;28;20048;-58
2023/09/23 08:59:19;;;;;;;228.60;212.00;;;;;;;;;;5014201;28;20410;-60
2023/09/23 09:01:44;;;;;;;218.20;201.17;;;;;;;;;;4996901;28;20014;-58
2023/09/23 09:04:16;;;;;;;229.63;212.87;;;;;;;;;;5003782;28;20018;-60
2023/09/23 09:06:47;;;;;;;231.63;215.52;;;;;;;;;;5010815;28;20053;-59
2023/09/23 09:09:13;;;;;;;199.75;184.02;;;;;;;;;;5008278;28;20041;-58
2023/09/23 09:11:38;;;;;;;291.20;268.33;;;;;;;;;;5010296;28;20025;-57
2023/09/23 09:14:03;;;;;;;151.20;140.93;;;;;;;;;;5011528;28;20441;-58
2023/09/23 09:16:29;;;;;;;226.77;209.20;;;;;;;;;;5010926;28;20246;-60
2023/09/23 09:18:55;;;;;;;157.05;145.32;;;;;;;;;;5007593;28;20029;-57
2023/09/23 09:21:20;;;;;;;231.80;209.65;;;;;;;;;;5018405;28;20022;-58
2023/09/23 09:23:45;;;;;;;235.80;218.47;;;;;;;;;;5008794;28;20025;-57
2023/09/23 09:26:10;;;;;;;200.37;186.83;;;;;;;;;;5009333;28;20022;-58
2023/09/23 09:28:35;;;;;;;180.40;168.70;;;;;;;;;;5001195;28;20474;-58
2023/09/23 09:31:01;;;;;;;182.53;168.83;;;;;;;;;;5001253;28;20026;-59
2023/09/23 09:33:26;;;;;;;285.90;258.10;;;;;;;;;;5008368;28;20106;-60
2023/09/23 09:35:58;;;;;;;211.80;196.35;;;;;;;;;;5022687;28;20504;-59
2023/09/23 09:38:24;;;;;;;167.63;156.60;;;;;;;;;;5012361;28;20516;-59
2023/09/23 09:40:50;;;;;;;244.27;226.05;;;;;;;;;;5006408;28;20026;-60
2023/09/23 09:43:16;;;;;;;319.05;281.50;;;;;;;;;;5005138;28;20019;-59
2023/09/23 09:45:42;;;;;;;237.73;213.45;;;;;;;;;;5009573;28;20014;-59
2023/09/23 09:48:08;;;;;;;216.77;201.77;;;;;;;;;;5010754;28;20029;-59
2023/09/23 09:50:38;;;;;;;250.85;232.38;;;;;;;;;;5017061;28;20017;-60
2023/09/23 09:53:05;;;;;;;293.92;263.08;;;;;;;;;;5009361;28;20486;-59
2023/09/23 09:55:31;;;;;;;187.18;174.18;;;;;;;;;;5010679;28;20055;-60
2023/09/23 09:57:56;;;;;;;229.95;214.05;;;;;;;;;;5013701;28;20520;-59
2023/09/23 10:00:35;;;;;;;332.07;296.97;;;;;;;;;;5007810;28;20034;-59
2023/09/23 10:03:02;;;;;;;138.27;128.18;;;;;;;;;;5010327;28;20478;-59
2023/09/23 10:05:31;;;;;;;191.20;178.70;;;;;;;;;;4997802;28;20389;-60
2023/09/23 10:07:56;;;;;;;230.00;213.98;;;;;;;;;;5009005;28;20097;-58
2023/09/23 10:10:31;;;;;;;130.60;122.57;;;;;;;;;;5005621;28;20451;-59
2023/09/23 10:12:58;;;;;;;251.05;233.73;;;;;;;;;;5003254;28;20018;-60
2023/09/23 10:15:26;;;;;;;314.58;291.45;;;;;;;;;;5009237;28;20093;-60
2023/09/23 10:17:53;;;;;;;219.82;200.35;;;;;;;;;;5001953;28;20862;-58
2023/09/23 10:20:20;;;;;;;229.35;212.98;;;;;;;;;;5011518;28;20025;-60
2023/09/23 10:22:55;;;;;;;273.77;244.60;;;;;;;;;;5006385;28;20416;-60
2023/09/23 10:25:20;;;;;;;266.30;245.55;;;;;;;;;;5005986;28;20028;-59
2023/09/23 10:27:56;;;;;;;253.67;234.80;;;;;;;;;;5008629;28;20390;-58
2023/09/23 10:30:22;;;;;;;222.35;201.40;;;;;;;;;;4999236;28;20018;-57
2023/09/23 10:32:49;;;;;;;244.35;227.18;;;;;;;;;;5001280;28;20033;-58
2023/09/23 10:35:21;;;;;;;274.85;255.05;;;;;;;;;;5012804;28;20029;-60
2023/09/23 10:37:46;;;;;;;205.57;190.35;;;;;;;;;;5011514;28;20025;-59
2023/09/23 10:40:12;;;;;;;195.90;180.27;;;;;;;;;;4998814;28;20038;-58
2023/09/23 10:42:37;;;;;;;194.05;180.13;;;;;;;;;;4994267;28;20107;-59
2023/09/23 10:45:03;;;;;;;243.23;227.32;;;;;;;;;;5000305;28;20022;-59
2023/09/23 10:47:28;;;;;;;185.40;170.35;;;;;;;;;;5012908;28;20014;-60
2023/09/23 10:49:53;;;;;;;229.40;211.57;;;;;;;;;;5011397;28;20024;-58
2023/09/23 10:52:19;;;;;;;277.13;255.17;;;;;;;;;;5012640;28;20018;-58
2023/09/23 10:54:46;;;;;;;353.65;327.42;;;;;;;;;;5009609;28;20124;-60
2023/09/23 10:57:12;;;;;;;255.52;237.07;;;;;;;;;;5009316;28;20030;-58
2023/09/23 10:59:38;;;;;;;300.60;272.20;;;;;;;;;;5007884;28;20045;-59
2023/09/23 11:02:05;;;;;;;264.85;239.32;;;;;;;;;;5010423;28;20390;-58
2023/09/23 11:04:30;;;;;;;277.20;250.70;;;;;;;;;;5013911;28;20018;-59
2023/09/23 11:06:56;;;;;;;439.53;322.27;;;;;;;;;;5009263;28;20112;-59
2023/09/23 11:09:22;;;;;;;245.93;229.23;;;;;;;;;;5010981;28;20433;-59
2023/09/23 11:11:47;;;;;;;187.93;175.35;;;;;;;;;;5013074;28;20041;-60
2023/09/23 11:14:15;;;;;;;276.55;255.60;;;;;;;;;;5013884;28;20025;-58
2023/09/23 11:16:41;;;;;;;347.80;321.40;;;;;;;;;;5009513;28;20021;-58
2023/09/23 11:19:07;;;;;;;335.45;310.90;;;;;;;;;;5012278;28;20381;-59
2023/09/23 11:21:40;;;;;;;229.73;214.00;;;;;;;;;;5011242;28;20022;-59
2023/09/23 11:24:06;;;;;;;273.17;254.30;;;;;;;;;;5013090;28;20010;-58
2023/09/23 11:26:31;;;;;;;251.65;231.27;;;;;;;;;;5010683;28;20018;-59
2023/09/23 11:28:56;;;;;;;244.70;222.30;;;;;;;;;;5012147;28;20034;-58
2023/09/23 11:31:22;;;;;;;245.53;225.17;;;;;;;;;;5012989;28;20052;-59
2023/09/23 11:33:47;;;;;;;355.97;326.90;;;;;;;;;;5012350;28;20022;-59
2023/09/23 11:36:12;;;;;;;372.37;342.77;;;;;;;;;;5009903;28;20026;-59
2023/09/23 11:38:38;;;;;;;280.73;259.27;;;;;;;;;;5004325;28;20034;-60
2023/09/23 11:41:04;;;;;;;263.70;243.32;;;;;;;;;;5011021;28;20033;-59
2023/09/23 11:43:29;;;;;;;351.88;290.42;;;;;;;;;;5019684;28;20018;-60
2023/09/23 11:45:54;;;;;;;271.77;250.13;;;;;;;;;;5011238;28;20025;-59
2023/09/23 11:48:20;;;;;;;273.53;250.37;;;;;;;;;;5018969;28;20022;-58
2023/09/23 11:50:45;;;;;;;334.80;309.77;;;;;;;;;;5031162;28;20017;-59
2023/09/23 11:53:11;;;;;;;262.37;242.73;;;;;;;;;;5028325;28;20455;-59
2023/09/23 11:55:37;;;;;;;;;;;;;;;;;;5019241;28;20014;-58
2023/09/23 11:58:02;;;;;;;217.60;197.63;;;;;;;;;;5012166;28;19959;-59
2023/09/23 12:00:28;;;;;;;276.30;254.37;;;;;;;;;;5011809;28;20546;-59
2023/09/23 12:02:53;;;;;;;322.35;295.95;;;;;;;;;;5012389;28;20072;-59
2023/09/23 12:05:19;;;;;;;219.97;186.37;;;;;;;;;;5011371;28;20037;-59
2023/09/23 12:07:44;;;;;;;292.33;263.25;;;;;;;;;;5016706;28;20021;-59
2023/09/23 12:10:13;;;;;;;282.92;261.88;;;;;;;;;;5019720;28;20025;-59
2023/09/23 12:12:39;;;;;;;367.35;338.58;;;;;;;;;;5030257;28;20067;-59
2023/09/23 12:15:04;;;;;;;240.30;222.50;;;;;;;;;;5032229;28;20025;-59
2023/09/23 12:17:29;;;;;;;253.43;233.85;;;;;;;;;;5032894;28;20079;-59
2023/09/23 12:19:55;;;;;;;352.70;308.60;;;;;;;;;;5029840;28;20384;-59
2023/09/23 12:22:20;;;;;;;269.10;236.40;;;;;;;;;;5019107;28;20029;-59
2023/09/23 12:24:45;;;;;;;201.95;186.77;;;;;;;;;;5030915;28;20504;-59
2023/09/23 12:27:11;;;;;;;303.42;275.10;;;;;;;;;;5027851;28;20034;-59
2023/09/23 12:29:36;;;;;;;364.63;334.35;;;;;;;;;;5011425;28;20030;-60
2023/09/23 12:32:02;;;;;;;238.23;220.05;;;;;;;;;;5011510;28;20026;-58
2023/09/23 12:34:28;;;;;;;262.73;237.10;;;;;;;;;;5010814;28;20076;-60
2023/09/23 12:36:53;;;;;;;241.27;221.23;;;;;;;;;;5022942;28;20009;-60
2023/09/23 12:39:18;;;;;;;344.10;317.20;;;;;;;;;;5030556;28;20013;-59
2023/09/23 12:41:43;;;;;;;342.50;305.80;;;;;;;;;;5030975;28;20428;-59
2023/09/23 12:44:09;;;;;;;178.53;164.77;;;;;;;;;;5031252;28;21024;-58
2023/09/23 12:46:34;;;;;;;279.60;258.98;;;;;;;;;;5031143;28;20045;-58
2023/09/23 12:48:59;;;;;;;290.70;271.20;;;;;;;;;;5030579;28;20029;-58
2023/09/23 12:51:25;;;;;;;299.10;276.92;;;;;;;;;;5022298;28;20021;-58
2023/09/23 12:53:50;;;;;;;176.38;164.57;;;;;;;;;;5020705;28;20029;-57
2023/09/23 12:56:17;;;;;;;281.80;261.50;;;;;;;;;;5014153;28;20018;-59
2023/09/23 12:58:42;;;;;;;384.23;352.33;;;;;;;;;;5015136;28;20113;-59
2023/09/23 13:01:07;;;;;;;220.80;204.43;;;;;;;;;;5010945;28;20101;-59
2023/09/23 13:03:33;;;;;;;288.97;265.50;;;;;;;;;;5011286;28;20030;-58
2023/09/23 13:05:58;;;;;;;257.10;239.27;;;;;;;;;;5013674;28;20109;-59
2023/09/23 13:08:23;;;;;;;321.23;296.13;;;;;;;;;;5022305;28;20093;-60
2023/09/23 13:10:48;;;;;;;245.10;225.70;;;;;;;;;;5022146;28;20493;-58
2023/09/23 13:13:14;;;;;;;193.33;181.17;;;;;;;;;;5011337;28;20025;-58
2023/09/23 13:15:40;;;;;;;360.67;330.98;;;;;;;;;;5010993;28;20090;-58
2023/09/23 13:18:05;;;;;;;252.00;232.68;;;;;;;;;;5015205;28;20548;-59
2023/09/23 13:20:31;;;;;;;328.13;302.27;;;;;;;;;;5021744;28;20128;-58
2023/09/23 13:22:56;;;;;;;405.20;371.02;;;;;;;;;;5031447;28;20025;-58
2023/09/23 13:25:21;;;;;;;250.93;225.67;;;;;;;;;;5005832;28;20401;-62
2023/09/23 13:27:46;;;;;;;373.97;344.73;;;;;;;;;;5011888;28;20024;-59
2023/09/23 13:30:11;;;;;;;428.53;390.00;;;;;;;;;;5015398;28;20052;-57
2023/09/23 13:32:38;;;;;;;349.30;319.30;;;;;;;;;;5009246;28;20382;-57
2023/09/23 13:35:04;;;;;;;346.52;314.23;;;;;;;;;;5006962;28;20045;-59
2023/09/23 13:37:29;;;;;;;358.73;327.98;;;;;;;;;;5013200;28;20429;-61
2023/09/23 13:39:57;;;;;;;360.17;302.02;;;;;;;;;;5016217;28;20037;-60
2023/09/23 13:42:22;;;;;;;279.40;251.25;;;;;;;;;;5018361;28;20018;-59
2023/09/23 13:44:49;;;;;;;380.47;339.67;;;;;;;;;;5015269;28;20164;-60
2023/09/23 13:47:15;;;;;;;274.77;251.43;;;;;;;;;;5014221;28;20022;-59
2023/09/23 13:49:40;;;;;;;285.50;262.07;;;;;;;;;;5012595;28;20033;-58
2023/09/23 13:52:05;;;;;;;304.38;276.75;;;;;;;;;;5010898;28;20021;-59
2023/09/23 13:54:30;;;;;;;270.13;248.50;;;;;;;;;;5011039;28;20025;-60
2023/09/23 13:56:55;;;;;;;381.70;339.43;;;;;;;;;;5010753;28;20481;-58
2023/09/23 13:59:22;;;;;;;332.83;302.80;;;;;;;;;;5010164;28;20382;-57